sensor_id;sensor_type;location;lat;lon;timestamp;temperature;humidity
41928;DHT22;27616;51.420;6.788;2022-07-23T00:00:20;18.90;99.90
41928;DHT22;27616;51.420;6.788;2022-07-23T00:02:46;19.00;99.90
41928;DHT22;27616;51.420;6.788;2022-07-23T00:05:12;19.00;99.90
41928;DHT22;27616;51.420;6.788;2022-07-23T00:07:41;19.00;99.90
41928;DHT22;27616;51.420;6.788;2022-07-23T00:10:08;19.00;99.90
41928;DHT22;27616;51.420;6.788;2022-07-23T00:12:35;19.00;99.90
41928;DHT22;27616;51.420;6.788;2022-07-23T00:15:03;19.00;99.90
41928;DHT22;27616;51.420;6.788;2022-07-23T00:17:36;19.00;99.90
41928;DHT22;27616;51.420;6.788;2022-07-23T00:20:03;19.00;99.90
41928;DHT22;27616;51.420;6.788;2022-07-23T00:22:29;19.00;99.90
41928;DHT22;27616;51.420;6.788;2022-07-23T00:24:55;19.00;99.90
41928;DHT22;27616;51.420;6.788;2022-07-23T00:27:21;19.00;99.90
41928;DHT22;27616;51.420;6.788;2022-07-23T00:29:47;18.90;99.90
41928;DHT22;27616;51.420;6.788;2022-07-23T00:32:13;18.90;99.90
41928;DHT22;27616;51.420;6.788;2022-07-23T00:34:38;18.90;99.90
41928;DHT22;27616;51.420;6.788;2022-07-23T00:37:04;18.90;99.90
41928;DHT22;27616;51.420;6.788;2022-07-23T00:39:30;18.90;99.90
41928;DHT22;27616;51.420;6.788;2022-07-23T00:41:56;18.90;99.90
41928;DHT22;27616;51.420;6.788;2022-07-23T00:44:23;18.90;99.90
41928;DHT22;27616;51.420;6.788;2022-07-23T00:46:55;18.90;99.90
41928;DHT22;27616;51.420;6.788;2022-07-23T00:49:26;18.90;99.90
41928;DHT22;27616;51.420;6.788;2022-07-23T00:51:53;18.90;99.90
41928;DHT22;27616;51.420;6.788;2022-07-23T00:54:21;18.90;99.90
41928;DHT22;27616;51.420;6.788;2022-07-23T00:56:47;18.90;99.90
41928;DHT22;27616;51.420;6.788;2022-07-23T00:59:13;18.90;99.90
41928;DHT22;27616;51.420;6.788;2022-07-23T01:01:40;18.90;99.90
41928;DHT22;27616;51.420;6.788;2022-07-23T01:04:06;18.90;99.90
41928;DHT22;27616;51.420;6.788;2022-07-23T01:06:36;18.90;99.90
41928;DHT22;27616;51.420;6.788;2022-07-23T01:09:06;18.80;99.90
41928;DHT22;27616;51.420;6.788;2022-07-23T01:11:36;18.80;99.90
41928;DHT22;27616;51.420;6.788;2022-07-23T01:14:13;18.80;99.90
41928;DHT22;27616;51.420;6.788;2022-07-23T01:16:40;18.80;99.90
41928;DHT22;27616;51.420;6.788;2022-07-23T01:19:06;18.80;99.90
41928;DHT22;27616;51.420;6.788;2022-07-23T01:21:37;18.80;99.90
41928;DHT22;27616;51.420;6.788;2022-07-23T01:24:03;18.80;99.90
41928;DHT22;27616;51.420;6.788;2022-07-23T01:26:31;18.80;99.90
41928;DHT22;27616;51.420;6.788;2022-07-23T01:28:56;18.80;99.90
41928;DHT22;27616;51.420;6.788;2022-07-23T01:31:22;18.70;99.90
41928;DHT22;27616;51.420;6.788;2022-07-23T01:33:48;18.80;99.90
41928;DHT22;27616;51.420;6.788;2022-07-23T01:36:16;18.80;99.90
41928;DHT22;27616;51.420;6.788;2022-07-23T01:38:41;18.80;99.90
41928;DHT22;27616;51.420;6.788;2022-07-23T01:41:07;18.80;99.90
41928;DHT22;27616;51.420;6.788;2022-07-23T01:43:33;18.70;99.90
41928;DHT22;27616;51.420;6.788;2022-07-23T01:45:59;18.70;99.90
41928;DHT22;27616;51.420;6.788;2022-07-23T01:48:29;18.80;99.90
41928;DHT22;27616;51.420;6.788;2022-07-23T01:51:21;18.80;99.90
41928;DHT22;27616;51.420;6.788;2022-07-23T01:53:56;18.70;99.90
41928;DHT22;27616;51.420;6.788;2022-07-23T01:56:22;18.80;99.90
41928;DHT22;27616;51.420;6.788;2022-07-23T01:58:49;18.70;99.90
41928;DHT22;27616;51.420;6.788;2022-07-23T02:01:16;18.70;99.90
41928;DHT22;27616;51.420;6.788;2022-07-23T02:03:42;18.70;99.90
41928;DHT22;27616;51.420;6.788;2022-07-23T02:06:09;18.70;99.90
41928;DHT22;27616;51.420;6.788;2022-07-23T02:08:35;18.70;99.90
41928;DHT22;27616;51.420;6.788;2022-07-23T02:11:01;18.70;99.90
41928;DHT22;27616;51.420;6.788;2022-07-23T02:13:27;18.60;99.90
41928;DHT22;27616;51.420;6.788;2022-07-23T02:15:54;18.60;99.90
41928;DHT22;27616;51.420;6.788;2022-07-23T02:18:20;18.60;99.90
41928;DHT22;27616;51.420;6.788;2022-07-23T02:20:46;18.60;99.90
41928;DHT22;27616;51.420;6.788;2022-07-23T02:23:11;18.50;99.90
41928;DHT22;27616;51.420;6.788;2022-07-23T02:25:37;18.60;99.90
41928;DHT22;27616;51.420;6.788;2022-07-23T02:28:03;18.50;99.90
41928;DHT22;27616;51.420;6.788;2022-07-23T02:30:29;18.50;99.90
41928;DHT22;27616;51.420;6.788;2022-07-23T02:32:55;18.50;99.90
41928;DHT22;27616;51.420;6.788;2022-07-23T02:35:23;18.50;99.90
41928;DHT22;27616;51.420;6.788;2022-07-23T02:37:49;18.50;99.90
41928;DHT22;27616;51.420;6.788;2022-07-23T02:40:15;18.50;99.90
41928;DHT22;27616;51.420;6.788;2022-07-23T02:42:42;18.50;99.90
41928;DHT22;27616;51.420;6.788;2022-07-23T02:45:08;18.50;99.90
41928;DHT22;27616;51.420;6.788;2022-07-23T02:47:34;18.40;99.90
41928;DHT22;27616;51.420;6.788;2022-07-23T02:50:01;18.50;99.90
41928;DHT22;27616;51.420;6.788;2022-07-23T02:52:28;18.40;99.90
41928;DHT22;27616;51.420;6.788;2022-07-23T02:54:54;18.50;99.90
41928;DHT22;27616;51.420;6.788;2022-07-23T02:57:20;18.40;99.90
41928;DHT22;27616;51.420;6.788;2022-07-23T02:59:46;18.50;99.90
41928;DHT22;27616;51.420;6.788;2022-07-23T03:02:11;18.50;99.90
41928;DHT22;27616;51.420;6.788;2022-07-23T03:04:37;18.50;99.90
41928;DHT22;27616;51.420;6.788;2022-07-23T03:07:03;18.50;99.90
41928;DHT22;27616;51.420;6.788;2022-07-23T03:09:29;18.40;99.90
41928;DHT22;27616;51.420;6.788;2022-07-23T03:11:55;18.40;99.90
41928;DHT22;27616;51.420;6.788;2022-07-23T03:14:20;18.40;99.90
41928;DHT22;27616;51.420;6.788;2022-07-23T03:16:46;18.30;99.90
41928;DHT22;27616;51.420;6.788;2022-07-23T03:19:12;18.30;99.90
41928;DHT22;27616;51.420;6.788;2022-07-23T03:21:37;18.30;99.90
41928;DHT22;27616;51.420;6.788;2022-07-23T03:24:08;18.30;99.90
41928;DHT22;27616;51.420;6.788;2022-07-23T03:26:35;18.20;99.90
41928;DHT22;27616;51.420;6.788;2022-07-23T03:29:01;18.20;99.90
41928;DHT22;27616;51.420;6.788;2022-07-23T03:31:30;18.20;99.90
41928;DHT22;27616;51.420;6.788;2022-07-23T03:33:59;18.10;99.90
41928;DHT22;27616;51.420;6.788;2022-07-23T03:36:25;18.10;99.90
41928;DHT22;27616;51.420;6.788;2022-07-23T03:38:54;18.10;99.90
41928;DHT22;27616;51.420;6.788;2022-07-23T03:41:20;18.10;99.90
41928;DHT22;27616;51.420;6.788;2022-07-23T03:43:46;18.00;99.90
41928;DHT22;27616;51.420;6.788;2022-07-23T03:46:12;18.10;99.90
41928;DHT22;27616;51.420;6.788;2022-07-23T03:48:38;18.00;99.90
41928;DHT22;27616;51.420;6.788;2022-07-23T03:51:04;18.00;99.90
41928;DHT22;27616;51.420;6.788;2022-07-23T03:53:30;18.00;99.90
41928;DHT22;27616;51.420;6.788;2022-07-23T03:55:55;18.00;99.90
41928;DHT22;27616;51.420;6.788;2022-07-23T03:58:22;17.90;99.90
41928;DHT22;27616;51.420;6.788;2022-07-23T04:00:48;17.90;99.90
41928;DHT22;27616;51.420;6.788;2022-07-23T04:03:14;17.90;99.90
41928;DHT22;27616;51.420;6.788;2022-07-23T04:05:41;17.90;99.90
41928;DHT22;27616;51.420;6.788;2022-07-23T04:08:11;17.90;99.90
41928;DHT22;27616;51.420;6.788;2022-07-23T04:10:40;17.90;99.90
41928;DHT22;27616;51.420;6.788;2022-07-23T04:13:07;17.90;99.90
41928;DHT22;27616;51.420;6.788;2022-07-23T04:15:33;17.90;99.90
41928;DHT22;27616;51.420;6.788;2022-07-23T04:17:59;17.90;99.90
41928;DHT22;27616;51.420;6.788;2022-07-23T04:20:34;18.00;99.90
41928;DHT22;27616;51.420;6.788;2022-07-23T04:23:02;18.00;99.90
41928;DHT22;27616;51.420;6.788;2022-07-23T04:25:28;18.00;99.90
41928;DHT22;27616;51.420;6.788;2022-07-23T04:27:54;18.00;99.90
41928;DHT22;27616;51.420;6.788;2022-07-23T04:30:20;17.90;99.90
41928;DHT22;27616;51.420;6.788;2022-07-23T04:32:45;18.00;99.90
41928;DHT22;27616;51.420;6.788;2022-07-23T04:35:18;18.00;99.90
41928;DHT22;27616;51.420;6.788;2022-07-23T04:37:44;18.00;99.90
41928;DHT22;27616;51.420;6.788;2022-07-23T04:40:12;18.00;99.90
41928;DHT22;27616;51.420;6.788;2022-07-23T04:42:38;18.00;99.90
41928;DHT22;27616;51.420;6.788;2022-07-23T04:45:04;18.00;99.90
41928;DHT22;27616;51.420;6.788;2022-07-23T04:47:30;17.90;99.90
41928;DHT22;27616;51.420;6.788;2022-07-23T04:49:57;18.00;99.90
41928;DHT22;27616;51.420;6.788;2022-07-23T04:52:24;18.00;99.90
41928;DHT22;27616;51.420;6.788;2022-07-23T04:54:50;18.00;99.90
41928;DHT22;27616;51.420;6.788;2022-07-23T04:57:16;18.00;99.90
41928;DHT22;27616;51.420;6.788;2022-07-23T04:59:42;18.00;99.90
41928;DHT22;27616;51.420;6.788;2022-07-23T05:02:09;18.00;99.90
41928;DHT22;27616;51.420;6.788;2022-07-23T05:04:34;18.00;99.90
41928;DHT22;27616;51.420;6.788;2022-07-23T05:07:02;18.00;99.90
41928;DHT22;27616;51.420;6.788;2022-07-23T05:09:28;18.10;99.90
41928;DHT22;27616;51.420;6.788;2022-07-23T05:11:55;18.10;99.90
41928;DHT22;27616;51.420;6.788;2022-07-23T05:14:21;18.10;99.90
41928;DHT22;27616;51.420;6.788;2022-07-23T05:16:50;18.00;99.90
41928;DHT22;27616;51.420;6.788;2022-07-23T05:19:21;18.00;99.90
41928;DHT22;27616;51.420;6.788;2022-07-23T05:21:47;18.10;99.90
41928;DHT22;27616;51.420;6.788;2022-07-23T05:24:13;18.10;99.90
41928;DHT22;27616;51.420;6.788;2022-07-23T05:26:39;18.10;99.90
41928;DHT22;27616;51.420;6.788;2022-07-23T05:29:05;18.20;99.90
41928;DHT22;27616;51.420;6.788;2022-07-23T05:31:31;18.20;99.90
41928;DHT22;27616;51.420;6.788;2022-07-23T05:33:57;18.20;99.90
41928;DHT22;27616;51.420;6.788;2022-07-23T05:36:23;18.20;99.90
41928;DHT22;27616;51.420;6.788;2022-07-23T05:38:52;18.20;99.90
41928;DHT22;27616;51.420;6.788;2022-07-23T05:41:18;18.20;99.90
41928;DHT22;27616;51.420;6.788;2022-07-23T05:43:44;18.30;99.90
41928;DHT22;27616;51.420;6.788;2022-07-23T05:46:11;18.20;99.90
41928;DHT22;27616;51.420;6.788;2022-07-23T05:48:39;18.30;99.90
41928;DHT22;27616;51.420;6.788;2022-07-23T05:51:10;18.30;99.90
41928;DHT22;27616;51.420;6.788;2022-07-23T05:53:36;18.30;99.90
41928;DHT22;27616;51.420;6.788;2022-07-23T05:56:28;18.40;99.90
41928;DHT22;27616;51.420;6.788;2022-07-23T05:58:54;18.40;99.90
41928;DHT22;27616;51.420;6.788;2022-07-23T06:01:24;18.40;99.90
41928;DHT22;27616;51.420;6.788;2022-07-23T06:03:59;18.40;99.90
41928;DHT22;27616;51.420;6.788;2022-07-23T06:06:32;18.40;99.90
41928;DHT22;27616;51.420;6.788;2022-07-23T06:08:57;18.50;99.90
41928;DHT22;27616;51.420;6.788;2022-07-23T06:11:23;18.50;99.90
41928;DHT22;27616;51.420;6.788;2022-07-23T06:13:49;18.50;99.90
41928;DHT22;27616;51.420;6.788;2022-07-23T06:16:15;18.60;99.90
41928;DHT22;27616;51.420;6.788;2022-07-23T06:18:41;18.50;99.90
41928;DHT22;27616;51.420;6.788;2022-07-23T06:21:07;18.60;99.90
41928;DHT22;27616;51.420;6.788;2022-07-23T06:23:33;18.60;99.90
41928;DHT22;27616;51.420;6.788;2022-07-23T06:25:59;18.60;99.90
41928;DHT22;27616;51.420;6.788;2022-07-23T06:28:24;18.60;99.90
41928;DHT22;27616;51.420;6.788;2022-07-23T06:30:50;18.60;99.90
41928;DHT22;27616;51.420;6.788;2022-07-23T06:33:16;18.70;99.90
41928;DHT22;27616;51.420;6.788;2022-07-23T06:35:43;18.70;99.90
41928;DHT22;27616;51.420;6.788;2022-07-23T06:38:09;18.70;99.90
41928;DHT22;27616;51.420;6.788;2022-07-23T06:40:35;18.70;99.90
41928;DHT22;27616;51.420;6.788;2022-07-23T06:43:01;18.70;99.90
41928;DHT22;27616;51.420;6.788;2022-07-23T06:45:27;18.80;99.90
41928;DHT22;27616;51.420;6.788;2022-07-23T06:47:53;18.80;99.90
41928;DHT22;27616;51.420;6.788;2022-07-23T06:50:19;18.90;99.90
41928;DHT22;27616;51.420;6.788;2022-07-23T06:52:45;18.90;99.90
41928;DHT22;27616;51.420;6.788;2022-07-23T06:55:10;18.90;99.90
41928;DHT22;27616;51.420;6.788;2022-07-23T06:57:37;19.00;99.90
41928;DHT22;27616;51.420;6.788;2022-07-23T07:00:05;19.00;99.90
41928;DHT22;27616;51.420;6.788;2022-07-23T07:02:31;19.00;99.90
41928;DHT22;27616;51.420;6.788;2022-07-23T07:04:57;19.00;99.90
41928;DHT22;27616;51.420;6.788;2022-07-23T07:07:23;19.00;99.90
41928;DHT22;27616;51.420;6.788;2022-07-23T07:09:49;19.10;99.90
41928;DHT22;27616;51.420;6.788;2022-07-23T07:12:14;19.10;99.90
41928;DHT22;27616;51.420;6.788;2022-07-23T07:14:40;19.10;99.90
41928;DHT22;27616;51.420;6.788;2022-07-23T07:17:09;19.10;99.90
41928;DHT22;27616;51.420;6.788;2022-07-23T07:19:36;19.10;99.90
41928;DHT22;27616;51.420;6.788;2022-07-23T07:22:07;19.20;99.90
41928;DHT22;27616;51.420;6.788;2022-07-23T07:24:38;19.20;99.90
41928;DHT22;27616;51.420;6.788;2022-07-23T07:27:04;19.20;99.90
41928;DHT22;27616;51.420;6.788;2022-07-23T07:29:30;19.20;99.90
41928;DHT22;27616;51.420;6.788;2022-07-23T07:31:55;19.30;99.90
41928;DHT22;27616;51.420;6.788;2022-07-23T07:34:21;19.30;99.90
41928;DHT22;27616;51.420;6.788;2022-07-23T07:36:47;19.40;99.90
41928;DHT22;27616;51.420;6.788;2022-07-23T07:39:13;19.40;99.90
41928;DHT22;27616;51.420;6.788;2022-07-23T07:41:39;19.40;99.90
41928;DHT22;27616;51.420;6.788;2022-07-23T07:44:05;19.50;99.90
41928;DHT22;27616;51.420;6.788;2022-07-23T07:46:34;19.50;99.90
41928;DHT22;27616;51.420;6.788;2022-07-23T07:49:00;19.50;99.90
41928;DHT22;27616;51.420;6.788;2022-07-23T07:51:26;19.50;99.90
41928;DHT22;27616;51.420;6.788;2022-07-23T07:53:52;19.60;99.90
41928;DHT22;27616;51.420;6.788;2022-07-23T07:56:18;19.60;99.90
41928;DHT22;27616;51.420;6.788;2022-07-23T07:58:43;19.60;99.90
41928;DHT22;27616;51.420;6.788;2022-07-23T08:01:09;19.70;99.90
41928;DHT22;27616;51.420;6.788;2022-07-23T08:03:35;19.70;99.90
41928;DHT22;27616;51.420;6.788;2022-07-23T08:06:01;19.70;99.90
41928;DHT22;27616;51.420;6.788;2022-07-23T08:08:26;19.70;99.90
41928;DHT22;27616;51.420;6.788;2022-07-23T08:10:52;19.80;99.90
41928;DHT22;27616;51.420;6.788;2022-07-23T08:13:18;19.90;99.90
41928;DHT22;27616;51.420;6.788;2022-07-23T08:15:44;19.90;99.90
41928;DHT22;27616;51.420;6.788;2022-07-23T08:18:10;19.90;99.90
41928;DHT22;27616;51.420;6.788;2022-07-23T08:20:35;19.90;99.90
41928;DHT22;27616;51.420;6.788;2022-07-23T08:23:06;19.90;99.90
41928;DHT22;27616;51.420;6.788;2022-07-23T08:25:34;19.90;99.90
41928;DHT22;27616;51.420;6.788;2022-07-23T08:28:02;19.90;99.90
41928;DHT22;27616;51.420;6.788;2022-07-23T08:30:28;19.90;99.90
41928;DHT22;27616;51.420;6.788;2022-07-23T08:32:59;19.90;99.90
41928;DHT22;27616;51.420;6.788;2022-07-23T08:35:32;19.90;99.90
41928;DHT22;27616;51.420;6.788;2022-07-23T08:38:00;19.90;99.90
41928;DHT22;27616;51.420;6.788;2022-07-23T08:40:27;20.00;99.90
41928;DHT22;27616;51.420;6.788;2022-07-23T08:42:54;20.00;99.90
41928;DHT22;27616;51.420;6.788;2022-07-23T08:45:21;19.90;99.90
41928;DHT22;27616;51.420;6.788;2022-07-23T08:47:52;20.00;99.90
41928;DHT22;27616;51.420;6.788;2022-07-23T08:50:18;20.00;99.90
41928;DHT22;27616;51.420;6.788;2022-07-23T08:52:44;20.00;99.90
41928;DHT22;27616;51.420;6.788;2022-07-23T08:55:10;20.10;99.90
41928;DHT22;27616;51.420;6.788;2022-07-23T08:57:36;20.10;99.60
41928;DHT22;27616;51.420;6.788;2022-07-23T09:00:04;20.10;99.00
41928;DHT22;27616;51.420;6.788;2022-07-23T09:02:33;20.10;99.50
41928;DHT22;27616;51.420;6.788;2022-07-23T09:05:03;20.10;99.30
41928;DHT22;27616;51.420;6.788;2022-07-23T09:07:29;20.10;99.50
41928;DHT22;27616;51.420;6.788;2022-07-23T09:10:13;20.10;99.50
41928;DHT22;27616;51.420;6.788;2022-07-23T09:12:39;20.10;99.10
41928;DHT22;27616;51.420;6.788;2022-07-23T09:15:08;20.20;99.20
41928;DHT22;27616;51.420;6.788;2022-07-23T09:17:57;20.20;98.90
41928;DHT22;27616;51.420;6.788;2022-07-23T09:20:23;20.20;98.90
41928;DHT22;27616;51.420;6.788;2022-07-23T09:22:49;20.20;99.10
41928;DHT22;27616;51.420;6.788;2022-07-23T09:25:17;20.30;98.70
41928;DHT22;27616;51.420;6.788;2022-07-23T09:27:54;20.40;97.50
41928;DHT22;27616;51.420;6.788;2022-07-23T09:30:23;20.40;96.80
41928;DHT22;27616;51.420;6.788;2022-07-23T09:36:03;20.50;97.00
41928;DHT22;27616;51.420;6.788;2022-07-23T09:38:29;20.50;97.20
41928;DHT22;27616;51.420;6.788;2022-07-23T09:43:33;20.50;97.30
41928;DHT22;27616;51.420;6.788;2022-07-23T09:46:25;20.50;97.20
41928;DHT22;27616;51.420;6.788;2022-07-23T09:48:52;20.50;97.30
41928;DHT22;27616;51.420;6.788;2022-07-23T09:51:18;20.50;97.20
41928;DHT22;27616;51.420;6.788;2022-07-23T09:54:02;20.60;97.10
41928;DHT22;27616;51.420;6.788;2022-07-23T10:07:18;20.80;96.10
41928;DHT22;27616;51.420;6.788;2022-07-23T10:10:17;20.80;96.40
41928;DHT22;27616;51.420;6.788;2022-07-23T10:13:05;20.80;95.40
41928;DHT22;27616;51.420;6.788;2022-07-23T10:16:01;20.90;95.80
41928;DHT22;27616;51.420;6.788;2022-07-23T10:18:36;20.90;95.60
41928;DHT22;27616;51.420;6.788;2022-07-23T10:21:54;20.90;95.30
41928;DHT22;27616;51.420;6.788;2022-07-23T10:31:25;21.10;95.50
41928;DHT22;27616;51.420;6.788;2022-07-23T10:37:27;21.20;94.80
41928;DHT22;27616;51.420;6.788;2022-07-23T10:40:16;21.10;94.70
41928;DHT22;27616;51.420;6.788;2022-07-23T10:42:58;21.20;94.60
41928;DHT22;27616;51.420;6.788;2022-07-23T10:46:28;21.20;94.50
41928;DHT22;27616;51.420;6.788;2022-07-23T10:49:35;21.20;94.50
41928;DHT22;27616;51.420;6.788;2022-07-23T10:54:45;21.30;93.80
41928;DHT22;27616;51.420;6.788;2022-07-23T10:57:12;21.40;93.80
41928;DHT22;27616;51.420;6.788;2022-07-23T11:02:33;21.50;94.20
41928;DHT22;27616;51.420;6.788;2022-07-23T11:05:00;21.50;93.90
41928;DHT22;27616;51.420;6.788;2022-07-23T11:07:26;21.60;93.70
41928;DHT22;27616;51.420;6.788;2022-07-23T11:09:55;21.60;93.40
41928;DHT22;27616;51.420;6.788;2022-07-23T11:15:12;21.80;92.80
41928;DHT22;27616;51.420;6.788;2022-07-23T11:20:19;21.80;92.90
41928;DHT22;27616;51.420;6.788;2022-07-23T11:22:47;21.70;93.00
41928;DHT22;27616;51.420;6.788;2022-07-23T11:25:28;21.70;93.10
41928;DHT22;27616;51.420;6.788;2022-07-23T11:27:54;21.70;92.70
41928;DHT22;27616;51.420;6.788;2022-07-23T11:32:54;21.70;91.80
41928;DHT22;27616;51.420;6.788;2022-07-23T11:35:41;21.80;91.30
41928;DHT22;27616;51.420;6.788;2022-07-23T11:40:44;22.00;91.60
41928;DHT22;27616;51.420;6.788;2022-07-23T11:43:12;22.00;91.10
41928;DHT22;27616;51.420;6.788;2022-07-23T11:45:43;22.00;91.10
41928;DHT22;27616;51.420;6.788;2022-07-23T11:48:28;22.00;91.30
41928;DHT22;27616;51.420;6.788;2022-07-23T11:50:56;22.00;91.20
41928;DHT22;27616;51.420;6.788;2022-07-23T11:53:27;22.00;91.20
41928;DHT22;27616;51.420;6.788;2022-07-23T11:55:53;22.00;91.00
41928;DHT22;27616;51.420;6.788;2022-07-23T11:58:20;22.00;90.90
41928;DHT22;27616;51.420;6.788;2022-07-23T12:00:47;22.10;90.90
41928;DHT22;27616;51.420;6.788;2022-07-23T12:03:13;22.10;90.30
41928;DHT22;27616;51.420;6.788;2022-07-23T12:05:39;22.10;90.70
41928;DHT22;27616;51.420;6.788;2022-07-23T12:08:07;22.20;90.00
41928;DHT22;27616;51.420;6.788;2022-07-23T12:10:59;22.20;89.60
41928;DHT22;27616;51.420;6.788;2022-07-23T12:13:25;22.20;90.40
41928;DHT22;27616;51.420;6.788;2022-07-23T12:15:53;22.30;90.30
41928;DHT22;27616;51.420;6.788;2022-07-23T12:18:21;22.30;90.00
41928;DHT22;27616;51.420;6.788;2022-07-23T12:21:04;22.30;90.30
41928;DHT22;27616;51.420;6.788;2022-07-23T12:23:30;22.30;90.50
41928;DHT22;27616;51.420;6.788;2022-07-23T12:26:03;22.40;90.40
41928;DHT22;27616;51.420;6.788;2022-07-23T12:28:31;22.40;90.10
41928;DHT22;27616;51.420;6.788;2022-07-23T12:30:58;22.50;88.40
41928;DHT22;27616;51.420;6.788;2022-07-23T12:35:56;22.80;86.60
41928;DHT22;27616;51.420;6.788;2022-07-23T12:38:23;22.90;84.60
41928;DHT22;27616;51.420;6.788;2022-07-23T12:40:52;23.00;84.00
41928;DHT22;27616;51.420;6.788;2022-07-23T12:43:37;23.00;84.50
41928;DHT22;27616;51.420;6.788;2022-07-23T12:46:21;23.10;84.70
41928;DHT22;27616;51.420;6.788;2022-07-23T12:51:26;23.20;84.30
41928;DHT22;27616;51.420;6.788;2022-07-23T12:53:53;23.30;83.50
41928;DHT22;27616;51.420;6.788;2022-07-23T12:56:28;23.40;83.20
41928;DHT22;27616;51.420;6.788;2022-07-23T12:59:14;23.30;83.80
41928;DHT22;27616;51.420;6.788;2022-07-23T13:01:43;23.20;83.90
41928;DHT22;27616;51.420;6.788;2022-07-23T13:04:17;23.20;85.20
41928;DHT22;27616;51.420;6.788;2022-07-23T13:06:48;23.10;84.20
41928;DHT22;27616;51.420;6.788;2022-07-23T13:09:21;23.00;84.30
41928;DHT22;27616;51.420;6.788;2022-07-23T13:11:49;22.90;84.20
41928;DHT22;27616;51.420;6.788;2022-07-23T13:14:16;22.90;85.20
41928;DHT22;27616;51.420;6.788;2022-07-23T13:16:43;22.90;85.50
41928;DHT22;27616;51.420;6.788;2022-07-23T13:19:09;22.90;85.80
41928;DHT22;27616;51.420;6.788;2022-07-23T13:21:35;22.90;85.00
41928;DHT22;27616;51.420;6.788;2022-07-23T13:24:01;22.80;84.50
41928;DHT22;27616;51.420;6.788;2022-07-23T13:26:27;22.80;84.50
41928;DHT22;27616;51.420;6.788;2022-07-23T13:28:53;22.90;85.10
41928;DHT22;27616;51.420;6.788;2022-07-23T13:31:22;23.00;85.90
41928;DHT22;27616;51.420;6.788;2022-07-23T13:33:47;23.00;86.30
41928;DHT22;27616;51.420;6.788;2022-07-23T13:36:13;23.10;85.60
41928;DHT22;27616;51.420;6.788;2022-07-23T13:38:39;23.00;85.40
41928;DHT22;27616;51.420;6.788;2022-07-23T13:41:15;23.00;85.10
41928;DHT22;27616;51.420;6.788;2022-07-23T13:43:44;22.90;85.70
41928;DHT22;27616;51.420;6.788;2022-07-23T13:46:10;22.90;86.20
41928;DHT22;27616;51.420;6.788;2022-07-23T13:48:36;23.00;86.90
41928;DHT22;27616;51.420;6.788;2022-07-23T13:51:02;23.00;86.10
41928;DHT22;27616;51.420;6.788;2022-07-23T13:53:28;23.00;85.60
41928;DHT22;27616;51.420;6.788;2022-07-23T13:55:54;23.00;86.30
41928;DHT22;27616;51.420;6.788;2022-07-23T13:58:21;23.10;86.00
41928;DHT22;27616;51.420;6.788;2022-07-23T14:00:49;23.20;85.50
41928;DHT22;27616;51.420;6.788;2022-07-23T14:03:16;23.30;85.30
41928;DHT22;27616;51.420;6.788;2022-07-23T14:05:43;23.50;85.30
41928;DHT22;27616;51.420;6.788;2022-07-23T14:08:09;23.80;84.40
41928;DHT22;27616;51.420;6.788;2022-07-23T14:10:56;23.90;83.50
41928;DHT22;27616;51.420;6.788;2022-07-23T14:13:21;24.00;82.40
41928;DHT22;27616;51.420;6.788;2022-07-23T14:15:48;24.20;82.70
41928;DHT22;27616;51.420;6.788;2022-07-23T14:18:16;24.30;82.30
41928;DHT22;27616;51.420;6.788;2022-07-23T14:20:42;24.40;82.70
41928;DHT22;27616;51.420;6.788;2022-07-23T14:23:08;24.50;82.00
41928;DHT22;27616;51.420;6.788;2022-07-23T14:25:35;24.70;82.60
41928;DHT22;27616;51.420;6.788;2022-07-23T14:28:01;24.80;81.50
41928;DHT22;27616;51.420;6.788;2022-07-23T14:30:27;25.10;81.00
41928;DHT22;27616;51.420;6.788;2022-07-23T14:32:53;25.70;80.30
41928;DHT22;27616;51.420;6.788;2022-07-23T14:35:19;26.30;77.30
41928;DHT22;27616;51.420;6.788;2022-07-23T14:37:45;27.20;74.90
41928;DHT22;27616;51.420;6.788;2022-07-23T14:40:12;28.00;73.00
41928;DHT22;27616;51.420;6.788;2022-07-23T14:42:37;28.70;71.10
41928;DHT22;27616;51.420;6.788;2022-07-23T14:45:04;29.00;69.10
41928;DHT22;27616;51.420;6.788;2022-07-23T14:47:31;29.10;68.90
41928;DHT22;27616;51.420;6.788;2022-07-23T14:49:57;29.00;68.30
41928;DHT22;27616;51.420;6.788;2022-07-23T14:52:23;28.70;68.30
41928;DHT22;27616;51.420;6.788;2022-07-23T14:54:49;28.50;68.70
41928;DHT22;27616;51.420;6.788;2022-07-23T14:57:15;28.00;69.70
41928;DHT22;27616;51.420;6.788;2022-07-23T14:59:41;27.50;70.40
41928;DHT22;27616;51.420;6.788;2022-07-23T15:02:08;27.20;70.80
41928;DHT22;27616;51.420;6.788;2022-07-23T15:04:34;26.90;72.70
41928;DHT22;27616;51.420;6.788;2022-07-23T15:07:00;26.90;72.30
41928;DHT22;27616;51.420;6.788;2022-07-23T15:09:26;26.80;72.50
41928;DHT22;27616;51.420;6.788;2022-07-23T15:11:52;26.70;72.20
41928;DHT22;27616;51.420;6.788;2022-07-23T15:14:18;26.60;72.20
41928;DHT22;27616;51.420;6.788;2022-07-23T15:16:43;26.60;72.10
41928;DHT22;27616;51.420;6.788;2022-07-23T15:19:09;26.60;72.70
41928;DHT22;27616;51.420;6.788;2022-07-23T15:21:35;26.50;73.10
41928;DHT22;27616;51.420;6.788;2022-07-23T15:24:01;26.50;72.80
41928;DHT22;27616;51.420;6.788;2022-07-23T15:26:28;26.50;72.80
41928;DHT22;27616;51.420;6.788;2022-07-23T15:28:55;26.40;73.00
41928;DHT22;27616;51.420;6.788;2022-07-23T15:31:21;26.20;73.60
41928;DHT22;27616;51.420;6.788;2022-07-23T15:33:48;26.20;73.70
41928;DHT22;27616;51.420;6.788;2022-07-23T15:36:16;26.20;74.00
41928;DHT22;27616;51.420;6.788;2022-07-23T15:38:42;26.00;74.00
41928;DHT22;27616;51.420;6.788;2022-07-23T15:41:08;25.90;74.50
41928;DHT22;27616;51.420;6.788;2022-07-23T15:43:34;25.80;74.80
41928;DHT22;27616;51.420;6.788;2022-07-23T15:46:00;25.60;74.80
41928;DHT22;27616;51.420;6.788;2022-07-23T15:48:26;25.50;75.30
41928;DHT22;27616;51.420;6.788;2022-07-23T15:50:51;25.40;75.40
41928;DHT22;27616;51.420;6.788;2022-07-23T15:53:18;25.30;76.20
41928;DHT22;27616;51.420;6.788;2022-07-23T15:55:45;25.20;76.30
41928;DHT22;27616;51.420;6.788;2022-07-23T15:58:11;25.10;77.50
41928;DHT22;27616;51.420;6.788;2022-07-23T16:00:37;25.00;77.10
41928;DHT22;27616;51.420;6.788;2022-07-23T16:03:04;24.90;77.70
41928;DHT22;27616;51.420;6.788;2022-07-23T16:05:30;24.80;77.80
41928;DHT22;27616;51.420;6.788;2022-07-23T16:07:56;24.70;77.70
41928;DHT22;27616;51.420;6.788;2022-07-23T16:10:22;24.70;77.90
41928;DHT22;27616;51.420;6.788;2022-07-23T16:12:48;24.60;77.80
41928;DHT22;27616;51.420;6.788;2022-07-23T16:15:14;24.60;77.60
41928;DHT22;27616;51.420;6.788;2022-07-23T16:17:40;24.60;77.70
41928;DHT22;27616;51.420;6.788;2022-07-23T16:20:07;24.50;78.70
41928;DHT22;27616;51.420;6.788;2022-07-23T16:22:34;24.50;77.80
41928;DHT22;27616;51.420;6.788;2022-07-23T16:25:01;24.40;79.30